createdAt,value
2023-02-25T00:01:51.321Z,13.70
2023-02-25T00:04:23.276Z,14.53
2023-02-25T00:06:51.588Z,14.67
2023-02-25T00:09:20.046Z,16.50
2023-02-25T00:11:48.546Z,13.50
2023-02-25T00:14:18.319Z,14.90
2023-02-25T00:16:46.725Z,14.87
2023-02-25T00:19:15.234Z,14.90
2023-02-25T00:21:43.536Z,13.97
2023-02-25T00:24:16.751Z,15.73
2023-02-25T00:26:45.782Z,14.67
2023-02-25T00:29:14.134Z,14.70
2023-02-25T00:31:44.141Z,14.30
2023-02-25T00:34:12.489Z,13.43
2023-02-25T00:36:41.104Z,14.50
2023-02-25T00:39:10.855Z,12.70
2023-02-25T00:41:39.322Z,14.70
2023-02-25T00:44:08.350Z,16.07
2023-02-25T00:46:37.142Z,13.67
2023-02-25T00:49:07.110Z,15.30
2023-02-25T00:51:35.504Z,14.87
2023-02-25T00:54:03.762Z,14.53
2023-02-25T00:56:32.125Z,14.33
2023-02-25T00:59:01.498Z,15.83
2023-02-25T01:01:33.463Z,16.03
2023-02-25T01:04:02.514Z,15.83
2023-02-25T01:06:34.961Z,15.23
2023-02-25T01:09:05.397Z,15.90
2023-02-25T01:11:35.995Z,15.63
2023-02-25T01:14:06.673Z,15.57
2023-02-25T01:16:36.369Z,15.80
2023-02-25T01:19:06.921Z,14.90
2023-02-25T01:21:39.315Z,15.03
2023-02-25T01:24:11.503Z,14.93
2023-02-25T01:26:42.600Z,15.23
2023-02-25T01:29:11.789Z,14.97
2023-02-25T01:31:40.824Z,13.63
2023-02-25T01:34:11.733Z,14.00
2023-02-25T01:36:41.665Z,14.33
2023-02-25T01:39:10.490Z,14.17
2023-02-25T01:41:39.473Z,15.07
2023-02-25T01:44:11.815Z,14.20
2023-02-25T01:46:41.340Z,13.80
2023-02-25T01:49:13.534Z,14.33
2023-02-25T01:51:45.278Z,14.37
2023-02-25T01:54:15.410Z,15.17
2023-02-25T01:56:49.437Z,14.80
2023-02-25T01:59:19.753Z,15.00
2023-02-25T02:01:48.416Z,14.10
2023-02-25T02:04:19.665Z,14.13
2023-02-25T02:06:51.026Z,14.77
2023-02-25T02:09:22.377Z,14.90
2023-02-25T02:11:50.683Z,15.70
2023-02-25T02:14:24.639Z,14.97
2023-02-25T02:17:06.914Z,14.67
2023-02-25T02:20:20.579Z,15.43
2023-02-25T02:23:02.425Z,15.50
2023-02-25T02:25:53.068Z,15.10
2023-02-25T02:28:56.942Z,15.93
2023-02-25T02:31:52.600Z,15.30
2023-02-25T02:34:32.630Z,14.20
2023-02-25T02:37:08.908Z,15.93
2023-02-25T02:39:48.733Z,14.63
2023-02-25T02:42:23.597Z,15.40
2023-02-25T02:44:57.934Z,15.67
2023-02-25T02:47:31.672Z,15.63
2023-02-25T02:50:05.573Z,15.20
2023-02-25T02:52:39.096Z,15.30
2023-02-25T02:55:11.207Z,15.90
2023-02-25T02:57:41.486Z,14.97
2023-02-25T03:00:17.441Z,15.53
2023-02-25T03:02:51.700Z,15.30
2023-02-25T03:05:21.385Z,15.33
2023-02-25T03:07:56.736Z,14.40
2023-02-25T03:10:25.154Z,16.23
2023-02-25T03:12:53.674Z,15.47
2023-02-25T03:15:22.311Z,15.13
2023-02-25T03:17:56.473Z,14.57
2023-02-25T03:20:29.357Z,15.83
2023-02-25T03:23:02.575Z,15.23
2023-02-25T03:25:36.478Z,15.87
2023-02-25T03:28:14.074Z,14.67
2023-02-25T03:30:49.689Z,16.13
2023-02-25T03:33:25.907Z,14.93
2023-02-25T03:35:57.221Z,13.93
2023-02-25T03:38:30.107Z,14.43
2023-02-25T03:41:02.813Z,14.97
2023-02-25T03:43:34.606Z,14.43
2023-02-25T03:46:06.030Z,15.13
2023-02-25T03:48:37.942Z,14.90
2023-02-25T03:51:07.601Z,14.67
2023-02-25T03:53:36.891Z,14.70
2023-02-25T03:56:09.128Z,14.43
2023-02-25T03:58:39.364Z,14.90
2023-02-25T04:01:14.388Z,13.97
2023-02-25T04:03:45.827Z,14.67
2023-02-25T04:06:14.588Z,15.17
2023-02-25T04:08:43.097Z,16.53
2023-02-25T04:11:11.495Z,17.47
2023-02-25T04:13:39.903Z,15.90
2023-02-25T04:16:09.447Z,16.37
2023-02-25T04:18:38.236Z,17.30
2023-02-25T04:21:08.588Z,16.30
2023-02-25T04:23:37.757Z,16.90
2023-02-25T04:26:06.252Z,16.37
2023-02-25T04:28:34.569Z,16.90
2023-02-25T04:31:03.066Z,16.67
2023-02-25T04:33:32.519Z,17.60
2023-02-25T04:36:00.853Z,17.13
2023-02-25T04:38:30.950Z,20.40
2023-02-25T04:40:59.338Z,15.97
2023-02-25T04:43:27.670Z,17.23
2023-02-25T04:45:56.312Z,16.40
2023-02-25T04:48:24.678Z,15.07
2023-02-25T04:50:52.968Z,16.40
2023-02-25T04:53:21.522Z,15.67
2023-02-25T04:55:51.300Z,15.53
2023-02-25T04:58:19.548Z,15.73
2023-02-25T05:00:51.068Z,16.10
2023-02-25T05:03:19.405Z,15.80
2023-02-25T05:05:47.723Z,17.60
2023-02-25T05:08:16.061Z,16.80
2023-02-25T05:10:44.504Z,15.93
2023-02-25T05:13:14.266Z,16.37
2023-02-25T05:15:42.606Z,17.20
2023-02-25T05:18:10.981Z,17.57
2023-02-25T05:20:43.106Z,20.30
2023-02-25T05:23:11.892Z,19.33
2023-02-25T05:25:41.856Z,21.80
2023-02-25T05:28:10.514Z,24.47
2023-02-25T05:30:41.173Z,25.67
2023-02-25T05:33:10.016Z,24.63
2023-02-25T05:35:41.033Z,26.27
2023-02-25T05:38:09.518Z,25.20
2023-02-25T05:40:39.641Z,21.93
2023-02-25T05:43:09.169Z,22.53
2023-02-25T05:45:37.561Z,21.37
2023-02-25T05:48:07.733Z,23.60
2023-02-25T05:50:41.858Z,21.10
2023-02-25T05:53:10.946Z,22.63
2023-02-25T05:55:44.131Z,19.63
2023-02-25T05:58:12.645Z,18.90
2023-02-25T06:00:41.346Z,19.03
2023-02-25T06:03:11.764Z,18.17
2023-02-25T06:05:41.983Z,18.17
2023-02-25T06:08:13.225Z,18.37
2023-02-25T06:10:41.788Z,18.20
2023-02-25T06:13:11.673Z,18.03
2023-02-25T06:15:40.974Z,16.73
2023-02-25T06:18:10.982Z,17.40
2023-02-25T06:20:39.366Z,16.27
2023-02-25T06:23:07.908Z,18.27
2023-02-25T06:25:36.432Z,18.23
2023-02-25T06:28:05.527Z,18.83
2023-02-25T06:30:34.018Z,19.57
2023-02-25T06:33:02.392Z,19.70
2023-02-25T06:35:32.185Z,19.37
2023-02-25T06:38:01.719Z,20.07
2023-02-25T06:40:30.297Z,20.27
2023-02-25T06:42:58.669Z,19.03
2023-02-25T06:45:27.127Z,16.73
2023-02-25T06:47:55.455Z,18.27
2023-02-25T06:50:23.867Z,18.03
2023-02-25T06:52:53.691Z,16.20
2023-02-25T06:55:22.021Z,16.10
2023-02-25T06:57:50.413Z,17.50
2023-02-25T07:00:19.631Z,16.33
2023-02-25T07:02:48.117Z,16.00
2023-02-25T07:05:16.529Z,17.63
2023-02-25T07:07:44.876Z,16.07
2023-02-25T07:10:14.675Z,18.98
2023-02-25T07:12:43.122Z,18.07
2023-02-25T07:15:12.213Z,16.60
2023-02-25T07:17:40.596Z,16.83
2023-02-25T07:20:10.358Z,16.97
2023-02-25T07:22:38.621Z,16.93
2023-02-25T07:25:08.557Z,18.10
2023-02-25T07:27:44.517Z,17.50
2023-02-25T07:30:15.079Z,17.70
2023-02-25T07:32:44.628Z,18.53
2023-02-25T07:37:59.367Z,15.53
2023-02-25T07:40:27.750Z,15.13
2023-02-25T07:42:57.430Z,14.27
2023-02-25T07:45:25.865Z,14.63
2023-02-25T07:47:54.558Z,14.97
2023-02-25T07:50:22.893Z,13.90
2023-02-25T07:52:51.297Z,13.80
2023-02-25T07:55:19.781Z,12.23
2023-02-25T07:57:48.259Z,13.50
2023-02-25T08:00:18.936Z,12.73
2023-02-25T08:02:47.409Z,15.07
2023-02-25T08:05:15.835Z,13.63
2023-02-25T08:07:44.180Z,14.53
2023-02-25T08:10:13.247Z,13.60
2023-02-25T08:12:41.667Z,12.93
2023-02-25T08:15:10.485Z,13.13
2023-02-25T08:17:40.261Z,13.37
2023-02-25T08:20:10.076Z,14.97
2023-02-25T08:22:38.920Z,13.43
2023-02-25T08:25:07.811Z,12.60
2023-02-25T08:27:36.541Z,13.20
2023-02-25T08:30:07.008Z,13.20
2023-02-25T08:32:35.640Z,13.00
2023-02-25T08:35:06.114Z,13.47
2023-02-25T08:37:34.659Z,12.33
2023-02-25T08:40:09.654Z,13.43
2023-02-25T08:42:40.033Z,12.80
2023-02-25T08:45:09.053Z,12.30
2023-02-25T08:47:37.603Z,13.47
2023-02-25T08:50:08.405Z,12.47
2023-02-25T08:52:42.091Z,13.13
2023-02-25T08:55:14.948Z,11.43
2023-02-25T08:57:46.341Z,13.87
2023-02-25T09:00:16.309Z,14.60
2023-02-25T09:02:45.128Z,12.27
2023-02-25T09:05:15.034Z,14.03
2023-02-25T09:07:43.395Z,13.57
2023-02-25T09:10:14.089Z,14.17
2023-02-25T09:12:43.164Z,14.30
2023-02-25T09:15:12.755Z,13.50
2023-02-25T09:17:41.412Z,14.83
2023-02-25T09:20:11.950Z,14.90
2023-02-25T09:22:42.101Z,14.57
2023-02-25T09:25:10.593Z,15.80
2023-02-25T09:27:39.192Z,14.03
2023-02-25T09:30:08.869Z,15.37
2023-02-25T09:32:37.358Z,14.43
2023-02-25T09:35:06.733Z,15.23
2023-02-25T09:37:35.482Z,15.60
2023-02-25T09:40:09.656Z,14.60
2023-02-25T09:42:51.814Z,14.83
2023-02-25T09:45:23.193Z,15.23
2023-02-25T09:47:56.539Z,15.77
2023-02-25T09:50:36.047Z,14.37
2023-02-25T09:53:11.456Z,15.87
2023-02-25T09:55:45.426Z,12.33
2023-02-25T09:58:21.132Z,15.13
2023-02-25T10:01:07.184Z,14.63
2023-02-25T10:03:51.879Z,14.97
2023-02-25T10:06:26.545Z,15.93
2023-02-25T10:09:02.930Z,14.20
2023-02-25T10:11:43.079Z,14.33
2023-02-25T10:14:26.326Z,13.33
2023-02-25T10:17:05.758Z,13.77
2023-02-25T10:19:45.781Z,13.97
2023-02-25T10:22:28.167Z,13.77
2023-02-25T10:25:00.196Z,14.93
2023-02-25T10:27:33.174Z,15.27
2023-02-25T10:30:06.676Z,13.73
2023-02-25T10:32:37.397Z,14.20
2023-02-25T10:35:23.047Z,15.70
2023-02-25T10:37:51.509Z,13.77
2023-02-25T10:40:22.267Z,13.83
2023-02-25T10:42:54.444Z,14.53
2023-02-25T10:45:27.264Z,14.17
2023-02-25T10:48:03.384Z,16.07
2023-02-25T10:50:44.963Z,14.87
2023-02-25T10:53:16.496Z,15.63
2023-02-25T10:55:52.875Z,13.87
2023-02-25T10:58:29.029Z,14.43
2023-02-25T11:01:00.728Z,13.90
2023-02-25T11:03:32.107Z,14.73
2023-02-25T11:06:25.601Z,17.87
2023-02-25T11:08:56.498Z,14.20
2023-02-25T11:11:26.887Z,16.20
2023-02-25T11:14:02.235Z,16.30
2023-02-25T11:16:32.065Z,15.20
2023-02-25T11:19:02.578Z,16.13
2023-02-25T11:21:35.091Z,15.20
2023-02-25T11:24:10.088Z,16.07
2023-02-25T11:26:39.398Z,15.60
2023-02-25T11:29:14.290Z,16.33
2023-02-25T11:31:44.305Z,16.80
2023-02-25T11:34:21.811Z,16.93
2023-02-25T11:36:51.291Z,16.33
2023-02-25T11:39:22.511Z,17.37
2023-02-25T11:41:52.145Z,16.07
2023-02-25T11:44:28.448Z,18.03
2023-02-25T11:47:04.500Z,17.53
2023-02-25T11:49:54.824Z,17.20
2023-02-25T11:52:28.593Z,17.77
2023-02-25T11:55:10.870Z,18.40
2023-02-25T11:57:47.807Z,17.87
2023-02-25T12:00:27.618Z,17.30
2023-02-25T12:03:29.268Z,18.57
2023-02-25T12:06:10.348Z,16.80
2023-02-25T12:08:46.455Z,16.87
2023-02-25T12:11:56.530Z,16.00
2023-02-25T12:15:00.311Z,15.57
2023-02-25T12:17:59.563Z,16.23
2023-02-25T12:20:55.332Z,16.63
2023-02-25T12:24:17.485Z,15.47
2023-02-25T12:27:07.938Z,16.70
2023-02-25T12:30:03.326Z,15.40
2023-02-25T12:32:54.446Z,16.03
2023-02-25T12:35:50.025Z,15.57
2023-02-25T12:38:59.899Z,18.87
2023-02-25T12:41:40.419Z,17.37
2023-02-25T12:44:41.805Z,15.30
2023-02-25T12:47:21.544Z,45.60
2023-02-25T12:50:40.683Z,15.53
2023-02-25T12:53:25.482Z,16.03
2023-02-25T12:56:32.202Z,43.30
2023-02-25T12:59:29.436Z,40.13
2023-02-25T13:02:18.590Z,35.53
2023-02-25T13:05:19.926Z,23.47
2023-02-25T13:08:17.475Z,17.27
2023-02-25T13:10:58.065Z,20.43
2023-02-25T13:14:12.410Z,20.77
2023-02-25T13:16:58.501Z,17.97
2023-02-25T13:19:47.738Z,16.20
2023-02-25T13:22:33.645Z,18.70
2023-02-25T13:25:14.089Z,15.63
2023-02-25T13:28:19.206Z,15.20
2023-02-25T13:30:58.130Z,14.10
2023-02-25T13:33:46.202Z,13.37
2023-02-25T13:36:33.745Z,12.50
2023-02-25T13:39:20.976Z,12.73
2023-02-25T13:42:11.225Z,11.47
2023-02-25T13:44:56.271Z,11.57
2023-02-25T13:47:41.162Z,22.03
2023-02-25T13:50:38.875Z,10.83
2023-02-25T13:53:52.158Z,11.03
2023-02-25T13:57:00.318Z,14.17
2023-02-25T14:00:02.638Z,15.30
2023-02-25T14:03:07.278Z,14.73
2023-02-25T14:06:13.653Z,15.47
2023-02-25T14:09:33.039Z,16.00
2023-02-25T14:12:13.261Z,16.90
2023-02-25T14:15:18.103Z,18.63
2023-02-25T14:18:12.300Z,43.27
2023-02-25T14:20:51.255Z,27.50
2023-02-25T14:23:31.425Z,19.27
2023-02-25T14:26:24.260Z,26.23
2023-02-25T14:29:07.591Z,37.10
2023-02-25T14:31:48.471Z,19.00
2023-02-25T14:34:47.156Z,15.63
2023-02-25T14:37:23.764Z,15.40
2023-02-25T14:40:13.985Z,17.50
2023-02-25T14:43:17.424Z,17.77
2023-02-25T14:45:52.221Z,32.57
2023-02-25T14:48:27.031Z,27.90
2023-02-25T14:51:08.954Z,28.30
2023-02-25T14:53:59.315Z,15.43
2023-02-25T14:56:51.459Z,18.70
2023-02-25T14:59:50.016Z,15.67
2023-02-25T15:02:46.854Z,14.53
2023-02-25T15:05:33.569Z,22.90
2023-02-25T15:08:26.727Z,17.03
2023-02-25T15:11:22.389Z,15.77
2023-02-25T15:14:24.817Z,15.97
2023-02-25T15:17:10.294Z,15.40
2023-02-25T15:20:30.305Z,15.47
2023-02-25T15:23:13.426Z,16.43
2023-02-25T15:25:48.285Z,16.93
2023-02-25T15:29:00.132Z,17.90
2023-02-25T15:31:54.246Z,18.80
2023-02-25T15:34:55.087Z,17.23
2023-02-25T15:37:34.053Z,17.97
2023-02-25T15:40:38.869Z,19.70
2023-02-25T15:43:40.313Z,16.80
2023-02-25T15:46:38.745Z,15.20
2023-02-25T15:49:20.058Z,16.10
2023-02-25T15:51:51.473Z,17.53
2023-02-25T15:54:49.808Z,15.43
2023-02-25T15:57:38.040Z,18.53
2023-02-25T16:00:46.293Z,18.17
2023-02-25T16:03:47.852Z,20.47
2023-02-25T16:06:19.226Z,20.10
2023-02-25T16:08:53.960Z,19.70
2023-02-25T16:11:34.678Z,20.83
2023-02-25T16:14:07.514Z,18.87
2023-02-25T16:16:39.828Z,18.13
2023-02-25T16:19:08.995Z,19.87
2023-02-25T16:21:42.022Z,18.17
2023-02-25T16:24:20.264Z,18.47
2023-02-25T16:26:59.913Z,18.53
2023-02-25T16:29:43.750Z,21.07
2023-02-25T16:32:24.531Z,23.77
2023-02-25T16:35:02.540Z,28.17
2023-02-25T16:37:40.718Z,24.70
2023-02-25T16:40:20.550Z,28.13
2023-02-25T16:43:12.491Z,27.13
2023-02-25T16:45:46.915Z,28.03
2023-02-25T16:48:19.558Z,25.47
2023-02-25T16:50:54.242Z,24.40
2023-02-25T16:53:26.242Z,25.97
2023-02-25T16:56:00.305Z,27.13
2023-02-25T16:58:31.851Z,24.03
2023-02-25T17:01:04.028Z,23.93
2023-02-25T17:03:46.459Z,25.97
2023-02-25T17:06:19.135Z,22.37
2023-02-25T17:08:49.073Z,20.13
2023-02-25T17:11:19.334Z,21.57
2023-02-25T17:13:49.702Z,20.47
2023-02-25T17:16:23.304Z,20.27
2023-02-25T17:18:55.371Z,20.53
2023-02-25T17:21:29.584Z,20.70
2023-02-25T17:24:00.345Z,20.50
2023-02-25T17:26:29.479Z,20.77
2023-02-25T17:29:03.808Z,21.57
2023-02-25T17:31:32.517Z,21.00
2023-02-25T17:34:03.637Z,21.23
2023-02-25T17:36:35.476Z,20.37
2023-02-25T17:39:06.164Z,20.57
2023-02-25T17:41:42.981Z,22.97
2023-02-25T17:44:14.206Z,23.30
2023-02-25T17:46:44.721Z,23.33
2023-02-25T17:49:22.660Z,23.47
2023-02-25T17:51:55.776Z,20.67
2023-02-25T17:54:26.638Z,21.60
2023-02-25T17:57:00.390Z,21.80
2023-02-25T17:59:39.700Z,23.30
2023-02-25T18:02:34.441Z,22.33
2023-02-25T18:05:25.734Z,21.73
2023-02-25T18:08:19.531Z,23.40
2023-02-25T18:10:56.237Z,21.33
2023-02-25T18:13:31.194Z,23.33
2023-02-25T18:16:41.511Z,20.90
2023-02-25T18:19:19.940Z,23.43
2023-02-25T18:21:48.224Z,22.37
2023-02-25T18:24:25.397Z,20.33
2023-02-25T18:27:03.055Z,20.07
2023-02-25T18:29:32.242Z,20.90
2023-02-25T18:32:02.227Z,21.47
2023-02-25T18:35:02.704Z,22.80
2023-02-25T18:37:34.451Z,21.43
2023-02-25T18:40:03.355Z,20.73
2023-02-25T18:42:31.835Z,20.93
2023-02-25T18:45:00.434Z,21.70
2023-02-25T18:48:41.488Z,21.90
2023-02-25T18:51:15.100Z,21.93
2023-02-25T18:53:44.321Z,22.60
2023-02-25T18:56:16.647Z,23.40
2023-02-25T18:58:45.682Z,21.67
2023-02-25T19:01:23.568Z,21.70
2023-02-25T19:03:53.900Z,21.33
2023-02-25T19:06:23.943Z,22.30
2023-02-25T19:08:52.447Z,22.33
2023-02-25T19:11:23.876Z,22.37
2023-02-25T19:13:53.140Z,19.77
2023-02-25T19:16:23.578Z,22.40
2023-02-25T19:18:52.571Z,22.17
2023-02-25T19:21:23.292Z,20.67
2023-02-25T19:23:53.969Z,21.43
2023-02-25T19:26:23.456Z,21.97
2023-02-25T19:28:52.204Z,20.93
2023-02-25T19:31:20.717Z,21.53
2023-02-25T19:33:49.310Z,22.40
2023-02-25T19:36:19.587Z,20.97
2023-02-25T19:38:49.464Z,19.70
2023-02-25T19:41:17.763Z,20.67
2023-02-25T19:43:46.729Z,21.93
2023-02-25T19:46:17.393Z,21.57
2023-02-25T19:48:45.932Z,21.43
2023-02-25T19:51:15.557Z,23.77
2023-02-25T19:53:45.602Z,21.57
2023-02-25T19:56:15.392Z,21.97
2023-02-25T19:58:43.770Z,23.83
2023-02-25T20:01:12.241Z,23.57
2023-02-25T20:03:40.681Z,22.57
2023-02-25T20:06:13.406Z,22.03
2023-02-25T20:08:41.950Z,23.70
2023-02-25T20:11:10.919Z,24.37
2023-02-25T20:13:40.815Z,24.10
2023-02-25T20:16:10.250Z,23.07
2023-02-25T20:18:38.657Z,23.77
2023-02-25T20:21:07.633Z,23.67
2023-02-25T20:23:37.365Z,24.60
2023-02-25T20:26:09.566Z,23.43
2023-02-25T20:28:38.316Z,23.37
2023-02-25T20:31:11.554Z,21.77
2023-02-25T20:33:40.825Z,21.77
2023-02-25T20:36:20.437Z,26.40
2023-02-25T20:39:04.353Z,24.47
2023-02-25T20:41:33.508Z,26.90
2023-02-25T20:44:02.079Z,25.57
2023-02-25T20:46:31.943Z,24.73
2023-02-25T20:49:00.849Z,24.13
2023-02-25T20:51:29.689Z,25.80
2023-02-25T20:53:58.261Z,23.53
2023-02-25T20:56:30.505Z,30.27
2023-02-25T20:58:59.283Z,29.40
2023-02-25T21:01:27.731Z,27.90
2023-02-25T21:03:57.558Z,25.10
2023-02-25T21:06:27.520Z,24.63
2023-02-25T21:08:56.499Z,24.20
2023-02-25T21:11:25.676Z,23.13
2023-02-25T21:13:54.895Z,22.63
2023-02-25T21:16:24.884Z,20.77
2023-02-25T21:18:53.617Z,22.50
2023-02-25T21:21:23.461Z,21.53
2023-02-25T21:23:52.798Z,18.80
2023-02-25T21:26:21.330Z,22.47
2023-02-25T21:28:49.695Z,21.67
2023-02-25T21:31:18.458Z,19.83
2023-02-25T21:33:47.194Z,19.23
2023-02-25T21:36:15.512Z,21.53
2023-02-25T21:38:45.302Z,20.47
2023-02-25T21:41:15.998Z,20.47
2023-02-25T21:43:45.196Z,19.70
2023-02-25T21:46:16.285Z,19.47
2023-02-25T21:48:46.838Z,19.47
2023-02-25T21:51:17.319Z,21.93
2023-02-25T21:53:47.397Z,20.80
2023-02-25T21:56:18.015Z,20.13
2023-02-25T21:58:46.778Z,22.63
2023-02-25T22:01:16.615Z,22.03
2023-02-25T22:03:46.398Z,23.27
2023-02-25T22:06:15.933Z,22.50
2023-02-25T22:08:46.767Z,22.77
2023-02-25T22:11:16.553Z,22.43
2023-02-25T22:13:45.043Z,23.77
2023-02-25T22:16:16.395Z,22.40
2023-02-25T22:18:45.091Z,21.87
2023-02-25T22:21:16.022Z,22.77
2023-02-25T22:23:48.383Z,22.43
2023-02-25T22:26:18.441Z,22.83
2023-02-25T22:28:47.898Z,23.80
2023-02-25T22:31:18.795Z,21.37
2023-02-25T22:33:47.263Z,22.47
2023-02-25T22:36:18.235Z,21.63
2023-02-25T22:38:49.556Z,22.27
2023-02-25T22:41:19.916Z,21.60
2023-02-25T22:43:49.075Z,21.20
2023-02-25T22:46:19.732Z,21.83
2023-02-25T22:48:49.676Z,21.33
2023-02-25T22:51:21.328Z,20.13
2023-02-25T22:53:51.411Z,19.97
2023-02-25T22:56:19.730Z,20.13
2023-02-25T22:58:48.112Z,19.97
2023-02-25T23:01:19.426Z,21.07
2023-02-25T23:03:48.500Z,19.03
2023-02-25T23:06:19.524Z,19.33
2023-02-25T23:08:48.050Z,20.43
2023-02-25T23:11:20.933Z,19.60
2023-02-25T23:13:52.586Z,19.87
2023-02-25T23:16:23.254Z,19.63
2023-02-25T23:18:52.618Z,20.77
2023-02-25T23:21:21.653Z,20.47
2023-02-25T23:23:51.704Z,20.90
2023-02-25T23:26:24.111Z,19.73
2023-02-25T23:28:56.623Z,21.03
2023-02-25T23:31:26.361Z,21.37
2023-02-25T23:33:57.458Z,20.80
2023-02-25T23:36:27.063Z,19.93
2023-02-25T23:38:55.802Z,20.00
2023-02-25T23:41:26.260Z,20.73
2023-02-25T23:43:55.928Z,20.53
2023-02-25T23:46:26.083Z,19.93
2023-02-25T23:48:56.472Z,21.50
2023-02-25T23:51:25.260Z,19.80
2023-02-25T23:53:54.490Z,19.60
2023-02-25T23:56:24.670Z,19.27
2023-02-25T23:58:54.184Z,17.40
